sensor_id;sensor_type;location;lat;lon;timestamp;pressure;altitude;pressure_sealevel;temperature;humidity
14767;BME280;7475;53.558;9.970;2022-11-15T00:00:50;101151.69;;;7.52;100.00
14767;BME280;7475;53.558;9.970;2022-11-15T00:03:23;101141.25;;;7.48;100.00
14767;BME280;7475;53.558;9.970;2022-11-15T00:05:49;101143.97;;;7.47;100.00
14767;BME280;7475;53.558;9.970;2022-11-15T00:08:14;101144.94;;;7.44;100.00
14767;BME280;7475;53.558;9.970;2022-11-15T00:10:39;101143.25;;;7.43;100.00
14767;BME280;7475;53.558;9.970;2022-11-15T00:13:10;101132.66;;;7.43;100.00
14767;BME280;7475;53.558;9.970;2022-11-15T00:15:40;101143.25;;;7.43;100.00
14767;BME280;7475;53.558;9.970;2022-11-15T00:18:10;101148.53;;;7.43;100.00
14767;BME280;7475;53.558;9.970;2022-11-15T00:20:36;101142.16;;;7.47;100.00
14767;BME280;7475;53.558;9.970;2022-11-15T00:23:03;101148.25;;;7.50;100.00
14767;BME280;7475;53.558;9.970;2022-11-15T00:25:29;101144.53;;;7.54;100.00
14767;BME280;7475;53.558;9.970;2022-11-15T00:27:56;101142.59;;;7.57;100.00
14767;BME280;7475;53.558;9.970;2022-11-15T00:30:22;101143.25;;;7.62;100.00
14767;BME280;7475;53.558;9.970;2022-11-15T00:32:47;101152.03;;;7.63;100.00
14767;BME280;7475;53.558;9.970;2022-11-15T00:35:12;101142.25;;;7.65;100.00
14767;BME280;7475;53.558;9.970;2022-11-15T00:37:38;101143.03;;;7.67;100.00
14767;BME280;7475;53.558;9.970;2022-11-15T00:40:03;101143.84;;;7.69;100.00
14767;BME280;7475;53.558;9.970;2022-11-15T00:42:29;101142.09;;;7.68;100.00
14767;BME280;7475;53.558;9.970;2022-11-15T00:44:54;101133.25;;;7.69;100.00
14767;BME280;7475;53.558;9.970;2022-11-15T00:47:19;101140.25;;;7.70;100.00
14767;BME280;7475;53.558;9.970;2022-11-15T00:49:45;101138.53;;;7.69;100.00
14767;BME280;7475;53.558;9.970;2022-11-15T00:52:10;101140.38;;;7.67;100.00
14767;BME280;7475;53.558;9.970;2022-11-15T00:54:35;101142.25;;;7.65;100.00
14767;BME280;7475;53.558;9.970;2022-11-15T00:57:00;101147.53;;;7.65;100.00
14767;BME280;7475;53.558;9.970;2022-11-15T00:59:26;101145.75;;;7.65;100.00
14767;BME280;7475;53.558;9.970;2022-11-15T01:01:51;101136.97;;;7.65;100.00
14767;BME280;7475;53.558;9.970;2022-11-15T01:04:17;101137.88;;;7.64;100.00
14767;BME280;7475;53.558;9.970;2022-11-15T01:06:42;101130.13;;;7.61;100.00
14767;BME280;7475;53.558;9.970;2022-11-15T01:09:07;101134.81;;;7.54;100.00
14767;BME280;7475;53.558;9.970;2022-11-15T01:11:33;101133.25;;;7.50;100.00
14767;BME280;7475;53.558;9.970;2022-11-15T01:13:58;101132.66;;;7.43;100.00
14767;BME280;7475;53.558;9.970;2022-11-15T01:16:24;101132.81;;;7.40;100.00
14767;BME280;7475;53.558;9.970;2022-11-15T01:18:50;101118.06;;;7.35;100.00
14767;BME280;7475;53.558;9.970;2022-11-15T01:21:17;101113.81;;;7.32;100.00
14767;BME280;7475;53.558;9.970;2022-11-15T01:23:43;101128.00;;;7.29;100.00
14767;BME280;7475;53.558;9.970;2022-11-15T01:26:13;101122.91;;;7.25;100.00
14767;BME280;7475;53.558;9.970;2022-11-15T01:28:41;101123.06;;;7.22;100.00
14767;BME280;7475;53.558;9.970;2022-11-15T01:31:12;101131.94;;;7.21;100.00
14767;BME280;7475;53.558;9.970;2022-11-15T01:33:38;101135.50;;;7.20;100.00
14767;BME280;7475;53.558;9.970;2022-11-15T01:36:04;101114.41;;;7.18;100.00
14767;BME280;7475;53.558;9.970;2022-11-15T01:38:30;101117.91;;;7.19;100.00
14767;BME280;7475;53.558;9.970;2022-11-15T01:40:56;101123.19;;;7.19;100.00
14767;BME280;7475;53.558;9.970;2022-11-15T01:43:27;101124.13;;;7.18;100.00
14767;BME280;7475;53.558;9.970;2022-11-15T01:45:58;101110.06;;;7.17;100.00
14767;BME280;7475;53.558;9.970;2022-11-15T01:48:30;101112.75;;;7.16;100.00
14767;BME280;7475;53.558;9.970;2022-11-15T01:50:57;101108.34;;;7.16;100.00
14767;BME280;7475;53.558;9.970;2022-11-15T01:53:24;101112.75;;;7.16;100.00
14767;BME280;7475;53.558;9.970;2022-11-15T01:55:51;101107.63;;;7.13;100.00
14767;BME280;7475;53.558;9.970;2022-11-15T01:58:17;101104.06;;;7.14;100.00
14767;BME280;7475;53.558;9.970;2022-11-15T02:00:42;101090.84;;;7.14;100.00
14767;BME280;7475;53.558;9.970;2022-11-15T02:03:07;101089.13;;;7.13;100.00
14767;BME280;7475;53.558;9.970;2022-11-15T02:05:34;101081.19;;;7.13;100.00
14767;BME280;7475;53.558;9.970;2022-11-15T02:08:00;101083.06;;;7.10;100.00
14767;BME280;7475;53.558;9.970;2022-11-15T02:10:27;101083.91;;;7.11;100.00
14767;BME280;7475;53.558;9.970;2022-11-15T02:12:53;101082.22;;;7.10;100.00
14767;BME280;7475;53.558;9.970;2022-11-15T02:15:20;101077.91;;;7.07;100.00
14767;BME280;7475;53.558;9.970;2022-11-15T02:20:43;101080.63;;;7.06;100.00
14767;BME280;7475;53.558;9.970;2022-11-15T02:23:41;101092.97;;;7.05;100.00
14767;BME280;7475;53.558;9.970;2022-11-15T02:29:32;101090.47;;;7.02;100.00
14767;BME280;7475;53.558;9.970;2022-11-15T02:32:36;101087.97;;;6.99;100.00
14767;BME280;7475;53.558;9.970;2022-11-15T02:35:25;101089.81;;;6.97;100.00
14767;BME280;7475;53.558;9.970;2022-11-15T02:38:08;101080.19;;;6.96;100.00
14767;BME280;7475;53.558;9.970;2022-11-15T02:43:25;101069.75;;;6.93;100.00
14767;BME280;7475;53.558;9.970;2022-11-15T02:46:20;101076.75;;;6.94;100.00
14767;BME280;7475;53.558;9.970;2022-11-15T02:48:48;101060.06;;;6.93;100.00
14767;BME280;7475;53.558;9.970;2022-11-15T02:51:14;101068.06;;;6.92;100.00
14767;BME280;7475;53.558;9.970;2022-11-15T02:53:40;101062.78;;;6.92;100.00
14767;BME280;7475;53.558;9.970;2022-11-15T02:56:09;101068.06;;;6.92;100.00
14767;BME280;7475;53.558;9.970;2022-11-15T03:07:39;101055.78;;;6.91;100.00
14767;BME280;7475;53.558;9.970;2022-11-15T03:10:57;101062.91;;;6.89;100.00
14767;BME280;7475;53.558;9.970;2022-11-15T03:13:19;101063.75;;;6.89;100.00
14767;BME280;7475;53.558;9.970;2022-11-15T03:16:10;101062.91;;;6.89;100.00
14767;BME280;7475;53.558;9.970;2022-11-15T03:18:47;101074.25;;;6.91;100.00
14767;BME280;7475;53.558;9.970;2022-11-15T03:21:15;101064.59;;;6.90;100.00
14767;BME280;7475;53.558;9.970;2022-11-15T03:23:44;101068.06;;;6.92;100.00
14767;BME280;7475;53.558;9.970;2022-11-15T03:26:12;101068.84;;;6.94;100.00
14767;BME280;7475;53.558;9.970;2022-11-15T03:28:43;101065.34;;;6.93;100.00
14767;BME280;7475;53.558;9.970;2022-11-15T03:31:12;101067.91;;;6.95;100.00
14767;BME280;7475;53.558;9.970;2022-11-15T03:33:58;101060.91;;;6.94;100.00
14767;BME280;7475;53.558;9.970;2022-11-15T03:36:26;101055.50;;;6.97;100.00
14767;BME280;7475;53.558;9.970;2022-11-15T03:38:54;101059.06;;;6.96;100.00
14767;BME280;7475;53.558;9.970;2022-11-15T03:41:28;101053.63;;;6.99;100.00
14767;BME280;7475;53.558;9.970;2022-11-15T03:44:00;101057.06;;;7.01;100.00
14767;BME280;7475;53.558;9.970;2022-11-15T03:46:38;101049.00;;;7.04;100.00
14767;BME280;7475;53.558;9.970;2022-11-15T03:49:14;101044.53;;;7.06;100.00
14767;BME280;7475;53.558;9.970;2022-11-15T03:51:41;101051.50;;;7.07;100.00
14767;BME280;7475;53.558;9.970;2022-11-15T03:54:07;101042.66;;;7.08;100.00
14767;BME280;7475;53.558;9.970;2022-11-15T03:56:32;101049.69;;;7.09;100.00
14767;BME280;7475;53.558;9.970;2022-11-15T03:58:57;101051.38;;;7.10;100.00
14767;BME280;7475;53.558;9.970;2022-11-15T04:01:23;101063.53;;;7.15;100.00
14767;BME280;7475;53.558;9.970;2022-11-15T04:03:48;101065.22;;;7.16;100.00
14767;BME280;7475;53.558;9.970;2022-11-15T04:06:14;101061.53;;;7.20;100.00
14767;BME280;7475;53.558;9.970;2022-11-15T04:08:39;101052.53;;;7.24;100.00
14767;BME280;7475;53.558;9.970;2022-11-15T04:11:05;101050.53;;;7.29;100.00
14767;BME280;7475;53.558;9.970;2022-11-15T04:13:30;101056.66;;;7.29;100.00
14767;BME280;7475;53.558;9.970;2022-11-15T04:15:55;101050.41;;;7.32;100.00
14767;BME280;7475;53.558;9.970;2022-11-15T04:18:20;101045.97;;;7.33;100.00
14767;BME280;7475;53.558;9.970;2022-11-15T04:20:46;101044.03;;;7.36;100.00
14767;BME280;7475;53.558;9.970;2022-11-15T04:23:30;101028.94;;;7.38;100.00
14767;BME280;7475;53.558;9.970;2022-11-15T04:26:30;101039.50;;;7.38;100.00
14767;BME280;7475;53.558;9.970;2022-11-15T04:28:56;101037.69;;;7.40;100.00
14767;BME280;7475;53.558;9.970;2022-11-15T04:31:40;101033.25;;;7.41;100.00
14767;BME280;7475;53.558;9.970;2022-11-15T04:34:05;101041.09;;;7.42;100.00
14767;BME280;7475;53.558;9.970;2022-11-15T04:36:31;101045.47;;;7.43;100.00
14767;BME280;7475;53.558;9.970;2022-11-15T04:39:15;101044.38;;;7.47;100.00
14767;BME280;7475;53.558;9.970;2022-11-15T04:41:40;101046.81;;;7.52;100.00
14767;BME280;7475;53.558;9.970;2022-11-15T04:44:06;101048.47;;;7.55;100.00
14767;BME280;7475;53.558;9.970;2022-11-15T04:46:32;101050.97;;;7.58;100.00
14767;BME280;7475;53.558;9.970;2022-11-15T04:48:57;101048.94;;;7.63;100.00
14767;BME280;7475;53.558;9.970;2022-11-15T04:51:23;101046.94;;;7.68;100.00
14767;BME280;7475;53.558;9.970;2022-11-15T04:53:48;101055.50;;;7.73;100.00
14767;BME280;7475;53.558;9.970;2022-11-15T04:56:13;101055.19;;;7.79;100.00
14767;BME280;7475;53.558;9.970;2022-11-15T04:58:39;101048.03;;;7.81;100.00
14767;BME280;7475;53.558;9.970;2022-11-15T05:01:08;101046.22;;;7.83;100.00
14767;BME280;7475;53.558;9.970;2022-11-15T05:03:33;101055.69;;;7.88;100.00
14767;BME280;7475;53.558;9.970;2022-11-15T05:06:17;101055.69;;;7.88;100.00
14767;BME280;7475;53.558;9.970;2022-11-15T05:08:42;101048.44;;;7.91;100.00
14767;BME280;7475;53.558;9.970;2022-11-15T05:11:08;101052.59;;;7.97;100.00
14767;BME280;7475;53.558;9.970;2022-11-15T05:13:33;101052.31;;;8.03;100.00
14767;BME280;7475;53.558;9.970;2022-11-15T05:15:58;101052.16;;;8.06;100.00
14767;BME280;7475;53.558;9.970;2022-11-15T05:18:24;101045.91;;;8.07;100.00
14767;BME280;7475;53.558;9.970;2022-11-15T05:20:49;101043.25;;;8.07;100.00
14767;BME280;7475;53.558;9.970;2022-11-15T05:23:14;101039.69;;;8.08;100.00
14767;BME280;7475;53.558;9.970;2022-11-15T05:25:39;101037.97;;;8.07;100.00
14767;BME280;7475;53.558;9.970;2022-11-15T05:28:05;101037.06;;;8.08;100.00
14767;BME280;7475;53.558;9.970;2022-11-15T05:30:30;101037.81;;;8.10;100.00
14767;BME280;7475;53.558;9.970;2022-11-15T05:32:55;101037.81;;;8.10;100.00
14767;BME280;7475;53.558;9.970;2022-11-15T05:35:32;101037.81;;;8.10;100.00
14767;BME280;7475;53.558;9.970;2022-11-15T05:37:59;101044.84;;;8.11;100.00
14767;BME280;7475;53.558;9.970;2022-11-15T05:40:25;101034.09;;;8.14;100.00
14767;BME280;7475;53.558;9.970;2022-11-15T05:42:51;101040.09;;;8.18;100.00
14767;BME280;7475;53.558;9.970;2022-11-15T05:45:16;101041.75;;;8.20;100.00
14767;BME280;7475;53.558;9.970;2022-11-15T05:47:42;101036.28;;;8.24;100.00
14767;BME280;7475;53.558;9.970;2022-11-15T05:50:12;101034.41;;;8.26;100.00
14767;BME280;7475;53.558;9.970;2022-11-15T05:52:38;101035.19;;;8.28;100.00
14767;BME280;7475;53.558;9.970;2022-11-15T05:55:04;101042.22;;;8.29;100.00
14767;BME280;7475;53.558;9.970;2022-11-15T05:57:30;101038.59;;;8.30;100.00
14767;BME280;7475;53.558;9.970;2022-11-15T05:59:55;101035.03;;;8.31;100.00
14767;BME280;7475;53.558;9.970;2022-11-15T06:02:21;101038.44;;;8.33;100.00
14767;BME280;7475;53.558;9.970;2022-11-15T06:04:46;101045.47;;;8.34;100.00
14767;BME280;7475;53.558;9.970;2022-11-15T06:07:11;101047.97;;;8.37;100.00
14767;BME280;7475;53.558;9.970;2022-11-15T06:09:37;101041.75;;;8.38;100.00
14767;BME280;7475;53.558;9.970;2022-11-15T06:12:02;101040.72;;;8.41;100.00
14767;BME280;7475;53.558;9.970;2022-11-15T06:14:28;101052.03;;;8.44;100.00
14767;BME280;7475;53.558;9.970;2022-11-15T06:16:53;101053.59;;;8.48;100.00
14767;BME280;7475;53.558;9.970;2022-11-15T06:19:18;101056.31;;;8.47;100.00
14767;BME280;7475;53.558;9.970;2022-11-15T06:21:44;101055.31;;;8.49;100.00
14767;BME280;7475;53.558;9.970;2022-11-15T06:24:09;101046.44;;;8.50;100.00
14767;BME280;7475;53.558;9.970;2022-11-15T06:26:34;101060.53;;;8.51;100.00
14767;BME280;7475;53.558;9.970;2022-11-15T06:28:59;101058.75;;;8.51;100.00
14767;BME280;7475;53.558;9.970;2022-11-15T06:31:25;101060.47;;;8.52;100.00
14767;BME280;7475;53.558;9.970;2022-11-15T06:33:50;101060.31;;;8.55;100.00
14767;BME280;7475;53.558;9.970;2022-11-15T06:36:16;101055.16;;;8.52;100.00
14767;BME280;7475;53.558;9.970;2022-11-15T06:38:43;101060.47;;;8.52;100.00
14767;BME280;7475;53.558;9.970;2022-11-15T06:41:09;101062.16;;;8.53;100.00
14767;BME280;7475;53.558;9.970;2022-11-15T06:43:35;101060.31;;;8.55;100.00
14767;BME280;7475;53.558;9.970;2022-11-15T06:46:02;101053.13;;;8.57;100.00
14767;BME280;7475;53.558;9.970;2022-11-15T06:48:29;101061.84;;;8.60;100.00
14767;BME280;7475;53.558;9.970;2022-11-15T06:50:58;101068.72;;;8.64;100.00
14767;BME280;7475;53.558;9.970;2022-11-15T06:53:24;101065.09;;;8.65;100.00
14767;BME280;7475;53.558;9.970;2022-11-15T06:55:49;101068.56;;;8.67;100.00
14767;BME280;7475;53.558;9.970;2022-11-15T06:58:15;101072.13;;;8.66;100.00
14767;BME280;7475;53.558;9.970;2022-11-15T07:00:41;101062.22;;;8.69;100.00
14767;BME280;7475;53.558;9.970;2022-11-15T07:03:07;101063.06;;;8.70;100.00
14767;BME280;7475;53.558;9.970;2022-11-15T07:05:33;101066.66;;;8.69;100.00
14767;BME280;7475;53.558;9.970;2022-11-15T07:07:58;101070.25;;;8.68;100.00
14767;BME280;7475;53.558;9.970;2022-11-15T07:10:24;101082.41;;;8.72;100.00
14767;BME280;7475;53.558;9.970;2022-11-15T07:12:51;101078.94;;;8.70;100.00
14767;BME280;7475;53.558;9.970;2022-11-15T07:15:18;101088.63;;;8.71;100.00
14767;BME280;7475;53.558;9.970;2022-11-15T07:17:43;101093.00;;;8.72;100.00
14767;BME280;7475;53.558;9.970;2022-11-15T07:20:09;101091.41;;;8.68;100.00
14767;BME280;7475;53.558;9.970;2022-11-15T07:22:35;101091.56;;;8.65;100.00
14767;BME280;7475;53.558;9.970;2022-11-15T07:25:00;101088.00;;;8.66;100.00
14767;BME280;7475;53.558;9.970;2022-11-15T07:27:25;101091.56;;;8.65;100.00
14767;BME280;7475;53.558;9.970;2022-11-15T07:29:51;101086.13;;;8.68;100.00
14767;BME280;7475;53.558;9.970;2022-11-15T07:32:16;101084.44;;;8.67;100.00
14767;BME280;7475;53.558;9.970;2022-11-15T07:34:41;101092.38;;;8.67;100.00
14767;BME280;7475;53.558;9.970;2022-11-15T07:37:07;101086.13;;;8.68;100.00
14767;BME280;7475;53.558;9.970;2022-11-15T07:39:32;101095.94;;;8.66;100.00
14767;BME280;7475;53.558;9.970;2022-11-15T07:41:58;101089.72;;;8.67;100.00
14767;BME280;7475;53.558;9.970;2022-11-15T07:44:42;101089.53;;;8.70;100.00
14767;BME280;7475;53.558;9.970;2022-11-15T07:47:07;101088.47;;;8.74;100.00
14767;BME280;7475;53.558;9.970;2022-11-15T07:49:33;101091.88;;;8.76;100.00
14767;BME280;7475;53.558;9.970;2022-11-15T07:51:58;101085.50;;;8.80;100.00
14767;BME280;7475;53.558;9.970;2022-11-15T07:54:23;101090.78;;;8.80;100.00
14767;BME280;7475;53.558;9.970;2022-11-15T07:56:48;101081.94;;;8.81;100.00
14767;BME280;7475;53.558;9.970;2022-11-15T07:59:14;101087.03;;;8.84;100.00
14767;BME280;7475;53.558;9.970;2022-11-15T08:01:39;101077.16;;;8.88;100.00
14767;BME280;7475;53.558;9.970;2022-11-15T08:04:04;101074.28;;;8.92;100.00
14767;BME280;7475;53.558;9.970;2022-11-15T08:06:30;101081.94;;;8.97;100.00
14767;BME280;7475;53.558;9.970;2022-11-15T08:08:55;101086.25;;;9.00;100.00
14767;BME280;7475;53.558;9.970;2022-11-15T08:11:20;101081.09;;;8.97;100.00
14767;BME280;7475;53.558;9.970;2022-11-15T08:13:46;101088.97;;;8.98;100.00
14767;BME280;7475;53.558;9.970;2022-11-15T08:16:11;101082.16;;;8.94;100.00
14767;BME280;7475;53.558;9.970;2022-11-15T08:18:37;101075.97;;;8.93;100.00
14767;BME280;7475;53.558;9.970;2022-11-15T08:21:03;101078.53;;;8.95;100.00
14767;BME280;7475;53.558;9.970;2022-11-15T08:23:28;101080.94;;;9.00;100.00
14767;BME280;7475;53.558;9.970;2022-11-15T08:25:59;101079.06;;;9.02;100.00
14767;BME280;7475;53.558;9.970;2022-11-15T08:28:25;101079.22;;;8.99;100.00
14767;BME280;7475;53.558;9.970;2022-11-15T08:30:50;101075.97;;;8.93;100.00
14767;BME280;7475;53.558;9.970;2022-11-15T08:33:15;101068.03;;;8.93;100.00
14767;BME280;7475;53.558;9.970;2022-11-15T08:35:42;101070.66;;;8.93;100.00
14767;BME280;7475;53.558;9.970;2022-11-15T08:38:08;101071.53;;;8.94;100.00
14767;BME280;7475;53.558;9.970;2022-11-15T08:40:34;101077.53;;;8.98;100.00
14767;BME280;7475;53.558;9.970;2022-11-15T08:43:00;101087.09;;;9.00;100.00
14767;BME280;7475;53.558;9.970;2022-11-15T08:45:28;101086.09;;;9.03;100.00
14767;BME280;7475;53.558;9.970;2022-11-15T08:47:53;101090.53;;;9.02;100.00
14767;BME280;7475;53.558;9.970;2022-11-15T08:50:19;101089.81;;;8.99;100.00
14767;BME280;7475;53.558;9.970;2022-11-15T08:52:44;101096.00;;;8.99;100.00
14767;BME280;7475;53.558;9.970;2022-11-15T08:55:09;101095.13;;;8.99;100.00
14767;BME280;7475;53.558;9.970;2022-11-15T08:57:35;101087.00;;;9.02;100.00
14767;BME280;7475;53.558;9.970;2022-11-15T09:00:00;101087.81;;;9.04;100.00
14767;BME280;7475;53.558;9.970;2022-11-15T09:02:25;101084.03;;;9.08;100.00
14767;BME280;7475;53.558;9.970;2022-11-15T09:04:51;101078.41;;;9.14;100.00
14767;BME280;7475;53.558;9.970;2022-11-15T09:07:16;101083.22;;;9.23;100.00
14767;BME280;7475;53.558;9.970;2022-11-15T09:09:41;101075.88;;;9.28;100.00
14767;BME280;7475;53.558;9.970;2022-11-15T09:12:07;101072.97;;;9.33;100.00
14767;BME280;7475;53.558;9.970;2022-11-15T09:14:33;101082.22;;;9.42;100.00
14767;BME280;7475;53.558;9.970;2022-11-15T09:16:59;101081.97;;;9.46;100.00
14767;BME280;7475;53.558;9.970;2022-11-15T09:19:24;101086.09;;;9.52;100.00
14767;BME280;7475;53.558;9.970;2022-11-15T09:21:50;101083.44;;;9.52;100.00
14767;BME280;7475;53.558;9.970;2022-11-15T09:24:15;101084.19;;;9.54;100.00
14767;BME280;7475;53.558;9.970;2022-11-15T09:26:41;101077.97;;;9.55;100.00
14767;BME280;7475;53.558;9.970;2022-11-15T09:29:06;101081.38;;;9.57;100.00
14767;BME280;7475;53.558;9.970;2022-11-15T09:31:32;101075.81;;;9.62;100.00
14767;BME280;7475;53.558;9.970;2022-11-15T09:33:57;101069.13;;;9.71;100.00
14767;BME280;7475;53.558;9.970;2022-11-15T09:36:23;101073.84;;;9.81;100.00
14767;BME280;7475;53.558;9.970;2022-11-15T09:38:49;101075.91;;;9.92;100.00
14767;BME280;7475;53.558;9.970;2022-11-15T09:49:15;101077.03;;;10.34;100.00
14767;BME280;7475;53.558;9.970;2022-11-15T09:51:43;101089.38;;;10.35;100.00
14767;BME280;7475;53.558;9.970;2022-11-15T09:54:47;101085.94;;;10.33;100.00
14767;BME280;7475;53.558;9.970;2022-11-15T09:57:14;101096.88;;;10.27;100.00
14767;BME280;7475;53.558;9.970;2022-11-15T09:59:59;101087.41;;;10.23;100.00
14767;BME280;7475;53.558;9.970;2022-11-15T10:05:23;101091.56;;;10.27;100.00
14767;BME280;7475;53.558;9.970;2022-11-15T10:10:57;101074.31;;;10.36;100.00
14767;BME280;7475;53.558;9.970;2022-11-15T10:13:25;101075.63;;;10.43;100.00
14767;BME280;7475;53.558;9.970;2022-11-15T10:15:53;101076.16;;;10.50;100.00
14767;BME280;7475;53.558;9.970;2022-11-15T10:18:35;101073.31;;;10.53;100.00
14767;BME280;7475;53.558;9.970;2022-11-15T10:24:12;101066.84;;;10.57;100.00
14767;BME280;7475;53.558;9.970;2022-11-15T10:26:47;101064.97;;;10.59;100.00
14767;BME280;7475;53.558;9.970;2022-11-15T10:29:20;101061.56;;;10.57;100.00
14767;BME280;7475;53.558;9.970;2022-11-15T10:31:47;101054.34;;;10.59;100.00
14767;BME280;7475;53.558;9.970;2022-11-15T10:34:13;101053.59;;;10.57;100.00
14767;BME280;7475;53.558;9.970;2022-11-15T10:36:44;101058.81;;;10.59;100.00
14767;BME280;7475;53.558;9.970;2022-11-15T10:39:12;101042.03;;;10.58;100.00
14767;BME280;7475;53.558;9.970;2022-11-15T10:41:40;101050.75;;;10.60;100.00
14767;BME280;7475;53.558;9.970;2022-11-15T10:46:31;101038.22;;;10.62;100.00
14767;BME280;7475;53.558;9.970;2022-11-15T10:49:19;101045.06;;;10.66;100.00
14767;BME280;7475;53.558;9.970;2022-11-15T10:51:51;101039.75;;;10.66;100.00
14767;BME280;7475;53.558;9.970;2022-11-15T10:54:25;101039.56;;;10.69;100.00
14767;BME280;7475;53.558;9.970;2022-11-15T10:56:55;101034.91;;;10.73;100.00
14767;BME280;7475;53.558;9.970;2022-11-15T10:59:27;101024.94;;;10.77;100.00
14767;BME280;7475;53.558;9.970;2022-11-15T11:01:53;101020.28;;;10.80;100.00
14767;BME280;7475;53.558;9.970;2022-11-15T11:04:19;101020.03;;;10.85;100.00
14767;BME280;7475;53.558;9.970;2022-11-15T11:06:53;101022.31;;;10.91;100.00
14767;BME280;7475;53.558;9.970;2022-11-15T11:09:39;101018.13;;;11.01;100.00
14767;BME280;7475;53.558;9.970;2022-11-15T11:12:10;101012.22;;;11.10;100.00
14767;BME280;7475;53.558;9.970;2022-11-15T11:14:38;101016.22;;;11.18;100.00
14767;BME280;7475;53.558;9.970;2022-11-15T11:17:21;101006.16;;;11.23;100.00
14767;BME280;7475;53.558;9.970;2022-11-15T11:25:19;100998.97;;;11.38;100.00
14767;BME280;7475;53.558;9.970;2022-11-15T11:31:20;100999.25;;;11.47;100.00
14767;BME280;7475;53.558;9.970;2022-11-15T11:37:03;100993.72;;;11.51;100.00
14767;BME280;7475;53.558;9.970;2022-11-15T11:47:23;100975.06;;;11.65;100.00
14767;BME280;7475;53.558;9.970;2022-11-15T11:49:58;100976.78;;;11.66;100.00
14767;BME280;7475;53.558;9.970;2022-11-15T11:52:34;100986.47;;;11.67;100.00
14767;BME280;7475;53.558;9.970;2022-11-15T11:55:19;100980.38;;;11.65;100.00
14767;BME280;7475;53.558;9.970;2022-11-15T11:58:03;100975.06;;;11.65;100.00
14767;BME280;7475;53.558;9.970;2022-11-15T12:00:31;100975.06;;;11.65;100.00
14767;BME280;7475;53.558;9.970;2022-11-15T12:03:07;100965.41;;;11.64;100.00
14767;BME280;7475;53.558;9.970;2022-11-15T12:05:41;100966.13;;;11.66;100.00
14767;BME280;7475;53.558;9.970;2022-11-15T12:08:25;100961.91;;;11.76;100.00
14767;BME280;7475;53.558;9.970;2022-11-15T12:11:00;100961.09;;;11.89;100.00
14767;BME280;7475;53.558;9.970;2022-11-15T12:13:29;100964.34;;;12.07;100.00
14767;BME280;7475;53.558;9.970;2022-11-15T12:18:28;100956.06;;;12.37;100.00
14767;BME280;7475;53.558;9.970;2022-11-15T12:21:00;100955.44;;;12.46;100.00
14767;BME280;7475;53.558;9.970;2022-11-15T12:23:32;100963.31;;;12.61;100.00
14767;BME280;7475;53.558;9.970;2022-11-15T12:26:06;100948.81;;;12.65;100.00
14767;BME280;7475;53.558;9.970;2022-11-15T12:31:30;100938.72;;;13.07;100.00
14767;BME280;7475;53.558;9.970;2022-11-15T12:33:57;100941.03;;;13.24;100.00
14767;BME280;7475;53.558;9.970;2022-11-15T12:38:55;100933.53;;;13.29;100.00
14767;BME280;7475;53.558;9.970;2022-11-15T12:41:28;100933.97;;;13.36;100.00
14767;BME280;7475;53.558;9.970;2022-11-15T12:43:55;100932.69;;;13.42;100.00
14767;BME280;7475;53.558;9.970;2022-11-15T12:49:08;100920.16;;;13.66;100.00
14767;BME280;7475;53.558;9.970;2022-11-15T13:02:42;100915.84;;;13.88;100.00
14767;BME280;7475;53.558;9.970;2022-11-15T13:12:56;100899.13;;;13.97;100.00
14767;BME280;7475;53.558;9.970;2022-11-15T13:18:28;100897.47;;;14.08;100.00
14767;BME280;7475;53.558;9.970;2022-11-15T13:20:54;100880.94;;;14.14;100.00
14767;BME280;7475;53.558;9.970;2022-11-15T13:23:21;100872.59;;;14.18;100.00
14767;BME280;7475;53.558;9.970;2022-11-15T13:28:34;100882.91;;;14.34;100.00
14767;BME280;7475;53.558;9.970;2022-11-15T13:31:36;100870.03;;;14.28;100.00
14767;BME280;7475;53.558;9.970;2022-11-15T13:34:27;100873.34;;;14.20;100.00
14767;BME280;7475;53.558;9.970;2022-11-15T13:36:53;100875.00;;;14.10;100.00
14767;BME280;7475;53.558;9.970;2022-11-15T13:41:48;100853.03;;;13.95;100.00
14767;BME280;7475;53.558;9.970;2022-11-15T13:44:26;100851.81;;;13.99;100.00
14767;BME280;7475;53.558;9.970;2022-11-15T13:47:14;100857.53;;;14.06;100.00
14767;BME280;7475;53.558;9.970;2022-11-15T13:49:40;100845.75;;;14.20;100.00
14767;BME280;7475;53.558;9.970;2022-11-15T13:52:08;100842.13;;;14.32;100.00
14767;BME280;7475;53.558;9.970;2022-11-15T13:54:42;100845.03;;;14.41;100.00
14767;BME280;7475;53.558;9.970;2022-11-15T13:57:13;100835.31;;;14.51;100.00
14767;BME280;7475;53.558;9.970;2022-11-15T13:59:49;100836.53;;;14.58;100.00
14767;BME280;7475;53.558;9.970;2022-11-15T14:02:21;100839.47;;;14.66;100.00
14767;BME280;7475;53.558;9.970;2022-11-15T14:05:02;100840.41;;;14.77;100.00
14767;BME280;7475;53.558;9.970;2022-11-15T14:07:30;100836.25;;;14.84;100.00
14767;BME280;7475;53.558;9.970;2022-11-15T14:09:55;100843.66;;;14.91;100.00
14767;BME280;7475;53.558;9.970;2022-11-15T14:12:25;100854.47;;;15.01;100.00
14767;BME280;7475;53.558;9.970;2022-11-15T14:14:51;100855.19;;;15.03;100.00
14767;BME280;7475;53.558;9.970;2022-11-15T14:17:32;100840.38;;;14.99;100.00
14767;BME280;7475;53.558;9.970;2022-11-15T14:19:58;100840.38;;;14.99;100.00
14767;BME280;7475;53.558;9.970;2022-11-15T14:22:27;100821.66;;;14.88;100.00
14767;BME280;7475;53.558;9.970;2022-11-15T14:25:18;100821.31;;;14.81;100.00
14767;BME280;7475;53.558;9.970;2022-11-15T14:28:13;100826.31;;;14.74;100.00
14767;BME280;7475;53.558;9.970;2022-11-15T14:30:40;100825.47;;;14.74;100.00
14767;BME280;7475;53.558;9.970;2022-11-15T14:35:46;100826.31;;;14.74;100.00
14767;BME280;7475;53.558;9.970;2022-11-15T14:38:12;100833.88;;;14.69;100.00
14767;BME280;7475;53.558;9.970;2022-11-15T14:40:37;100826.06;;;14.55;100.00
14767;BME280;7475;53.558;9.970;2022-11-15T14:43:03;100832.88;;;14.36;100.00
14767;BME280;7475;53.558;9.970;2022-11-15T14:45:28;100832.16;;;14.23;100.00